createdAt,value
2022-12-28T00:02:17.885Z,1.20
2022-12-28T00:04:46.597Z,1.20
2022-12-28T00:07:15.205Z,0.97
2022-12-28T00:09:43.783Z,1.20
2022-12-28T00:12:13.690Z,1.30
2022-12-28T00:14:42.288Z,1.13
2022-12-28T00:17:14.494Z,1.10
2022-12-28T00:19:43.118Z,1.43
2022-12-28T00:22:11.685Z,1.30
2022-12-28T00:24:40.350Z,1.17
2022-12-28T00:27:09.040Z,0.90
2022-12-28T00:29:38.960Z,1.00
2022-12-28T00:32:07.663Z,1.30
2022-12-28T00:34:36.362Z,1.30
2022-12-28T00:37:09.901Z,1.20
2022-12-28T00:39:41.377Z,1.10
2022-12-28T00:42:10.035Z,1.00
2022-12-28T00:44:40.121Z,1.30
2022-12-28T00:47:08.689Z,1.27
2022-12-28T00:49:37.309Z,1.37
2022-12-28T00:52:06.079Z,1.20
2022-12-28T00:54:34.695Z,1.50
2022-12-28T00:57:03.262Z,1.20
2022-12-28T00:59:31.866Z,1.30
2022-12-28T01:02:01.937Z,1.30
2022-12-28T01:04:30.672Z,1.40
2022-12-28T01:06:59.220Z,1.20
2022-12-28T01:09:29.025Z,1.30
2022-12-28T01:11:57.594Z,1.20
2022-12-28T01:14:26.471Z,1.40
2022-12-28T01:16:55.095Z,1.00
2022-12-28T01:19:25.167Z,1.20
2022-12-28T01:21:54.107Z,1.20
2022-12-28T01:24:22.995Z,1.27
2022-12-28T01:26:51.589Z,1.23
2022-12-28T01:29:20.190Z,1.10
2022-12-28T01:31:48.976Z,1.20
2022-12-28T01:34:17.581Z,1.23
2022-12-28T01:36:47.567Z,0.97
2022-12-28T01:39:16.143Z,1.17
2022-12-28T01:41:44.734Z,1.40
2022-12-28T01:44:32.184Z,1.00
2022-12-28T01:47:04.118Z,1.00
2022-12-28T01:49:36.001Z,1.10
2022-12-28T01:52:07.972Z,1.00
2022-12-28T01:54:38.130Z,1.20
2022-12-28T01:57:06.778Z,0.90
2022-12-28T01:59:39.112Z,1.00
2022-12-28T02:02:08.204Z,1.00
2022-12-28T02:04:37.028Z,1.20
2022-12-28T02:07:06.999Z,1.07
2022-12-28T02:09:38.667Z,1.20
2022-12-28T02:12:08.122Z,1.07
2022-12-28T02:14:37.188Z,0.97
2022-12-28T02:17:05.837Z,1.00
2022-12-28T02:19:38.880Z,1.00
2022-12-28T02:22:19.438Z,1.00
2022-12-28T02:25:12.521Z,1.10
2022-12-28T02:27:49.459Z,1.03
2022-12-28T02:30:19.843Z,1.30
2022-12-28T02:32:53.862Z,1.10
2022-12-28T02:35:26.404Z,1.10
2022-12-28T02:37:57.608Z,1.20
2022-12-28T02:40:28.186Z,1.10
2022-12-28T02:42:56.944Z,1.10
2022-12-28T02:45:52.118Z,1.40
2022-12-28T02:48:38.743Z,1.50
2022-12-28T02:51:21.076Z,1.03
2022-12-28T02:54:07.288Z,1.10
2022-12-28T02:56:38.949Z,1.10
2022-12-28T02:59:27.402Z,1.30
2022-12-28T03:02:11.036Z,1.20
2022-12-28T03:04:48.707Z,1.03
2022-12-28T03:07:37.610Z,1.13
2022-12-28T03:10:12.751Z,0.97
2022-12-28T03:12:44.428Z,1.50
2022-12-28T03:15:15.057Z,1.27
2022-12-28T03:18:02.805Z,1.30
2022-12-28T03:20:51.173Z,1.17
2022-12-28T03:23:39.604Z,1.20
2022-12-28T03:26:27.436Z,1.10
2022-12-28T03:29:14.243Z,1.30
2022-12-28T03:31:43.446Z,1.20
2022-12-28T03:34:12.157Z,1.43
2022-12-28T03:36:47.672Z,1.40
2022-12-28T03:39:23.088Z,1.00
2022-12-28T03:42:11.539Z,1.40
2022-12-28T03:44:40.968Z,1.60
2022-12-28T03:47:11.406Z,1.33
2022-12-28T03:49:40.264Z,1.40
2022-12-28T03:52:11.451Z,1.37
2022-12-28T03:54:41.248Z,1.27
2022-12-28T03:57:09.820Z,1.40
2022-12-28T03:59:38.331Z,1.33
2022-12-28T04:02:06.992Z,1.40
2022-12-28T04:04:35.634Z,1.33
2022-12-28T04:07:04.246Z,1.30
2022-12-28T04:09:34.144Z,1.27
2022-12-28T04:12:02.781Z,1.40
2022-12-28T04:14:31.412Z,1.20
2022-12-28T04:17:00.000Z,1.27
2022-12-28T04:19:28.625Z,1.10
2022-12-28T04:21:57.230Z,1.13
2022-12-28T04:24:25.764Z,1.10
2022-12-28T04:26:55.785Z,1.30
2022-12-28T04:29:24.307Z,1.53
2022-12-28T04:31:52.868Z,1.20
2022-12-28T04:34:21.399Z,1.20
2022-12-28T04:36:50.087Z,1.30
2022-12-28T04:39:18.624Z,1.17
2022-12-28T04:41:47.236Z,1.27
2022-12-28T04:44:17.175Z,1.20
2022-12-28T04:46:45.820Z,1.20
2022-12-28T04:49:14.475Z,1.20
2022-12-28T04:51:43.275Z,1.53
2022-12-28T04:54:14.147Z,1.30
2022-12-28T04:56:42.764Z,1.20
2022-12-28T04:59:11.374Z,1.10
2022-12-28T05:01:41.598Z,1.20
2022-12-28T05:04:10.321Z,1.00
2022-12-28T05:06:38.895Z,1.13
2022-12-28T05:09:07.488Z,1.20
2022-12-28T05:11:36.107Z,1.27
2022-12-28T05:14:04.674Z,1.00
2022-12-28T05:16:33.322Z,1.20
2022-12-28T05:19:03.335Z,1.00
2022-12-28T05:21:31.944Z,1.17
2022-12-28T05:24:00.683Z,1.10
2022-12-28T05:26:30.417Z,1.20
2022-12-28T05:28:59.321Z,1.20
2022-12-28T05:31:28.223Z,1.30
2022-12-28T05:33:56.879Z,1.10
2022-12-28T05:36:27.879Z,1.27
2022-12-28T05:38:57.113Z,1.23
2022-12-28T05:41:26.289Z,1.40
2022-12-28T05:43:55.594Z,1.30
2022-12-28T05:46:25.376Z,1.20
2022-12-28T05:48:55.102Z,1.20
2022-12-28T05:51:24.714Z,1.23
2022-12-28T05:53:54.679Z,1.20
2022-12-28T05:56:24.219Z,1.10
2022-12-28T05:58:54.533Z,0.97
2022-12-28T06:01:24.025Z,1.27
2022-12-28T06:03:54.432Z,1.10
2022-12-28T06:06:23.015Z,1.00
2022-12-28T06:08:51.901Z,1.00
2022-12-28T06:11:22.963Z,1.30
2022-12-28T06:13:51.647Z,1.20
2022-12-28T06:16:21.614Z,1.33
2022-12-28T06:18:51.715Z,1.00
2022-12-28T06:21:20.825Z,1.03
2022-12-28T06:23:49.941Z,1.10
2022-12-28T06:26:19.856Z,1.17
2022-12-28T06:28:50.021Z,1.13
2022-12-28T06:31:19.775Z,1.13
2022-12-28T06:33:48.887Z,1.00
2022-12-28T06:36:20.638Z,0.90
2022-12-28T06:38:49.658Z,1.23
2022-12-28T06:41:19.046Z,1.23
2022-12-28T06:43:47.989Z,1.13
2022-12-28T06:46:18.937Z,1.00
2022-12-28T06:48:47.734Z,0.90
2022-12-28T06:51:16.992Z,1.00
2022-12-28T06:53:45.989Z,0.93
2022-12-28T06:56:15.441Z,0.83
2022-12-28T06:58:44.514Z,0.80
2022-12-28T07:01:14.443Z,0.90
2022-12-28T07:03:44.902Z,0.80
2022-12-28T07:06:13.821Z,0.87
2022-12-28T07:08:42.457Z,1.00
2022-12-28T07:11:12.423Z,0.80
2022-12-28T07:13:41.411Z,1.00
2022-12-28T07:16:12.127Z,1.00
2022-12-28T07:18:41.318Z,1.00
2022-12-28T07:21:13.879Z,0.80
2022-12-28T07:23:42.693Z,1.00
2022-12-28T07:26:12.201Z,1.00
2022-12-28T07:28:41.170Z,0.80
2022-12-28T07:31:10.323Z,0.87
2022-12-28T07:33:39.299Z,0.87
2022-12-28T07:36:09.051Z,0.93
2022-12-28T07:38:39.095Z,1.20
2022-12-28T07:41:08.674Z,0.90
2022-12-28T07:43:37.589Z,1.03
2022-12-28T07:46:06.966Z,1.17
2022-12-28T07:48:36.344Z,1.00
2022-12-28T07:51:08.272Z,0.73
2022-12-28T07:53:36.801Z,0.90
2022-12-28T07:56:07.293Z,1.00
2022-12-28T07:58:36.253Z,1.03
2022-12-28T08:01:05.771Z,1.13
2022-12-28T08:03:35.522Z,0.87
2022-12-28T08:06:05.047Z,0.90
2022-12-28T08:08:35.649Z,1.03
2022-12-28T08:11:05.163Z,0.90
2022-12-28T08:13:36.729Z,1.37
2022-12-28T08:16:05.809Z,0.90
2022-12-28T08:18:34.849Z,1.00
2022-12-28T08:21:03.915Z,0.90
2022-12-28T08:23:32.725Z,0.83
2022-12-28T08:26:06.504Z,0.90
2022-12-28T08:28:36.769Z,1.10
2022-12-28T08:31:08.770Z,0.80
2022-12-28T08:33:37.353Z,1.13
2022-12-28T08:36:06.121Z,1.00
2022-12-28T08:38:35.386Z,1.00
2022-12-28T08:41:04.991Z,0.90
2022-12-28T08:43:34.360Z,0.70
2022-12-28T08:46:06.190Z,1.00
2022-12-28T08:48:35.419Z,0.90
2022-12-28T08:51:05.236Z,0.77
2022-12-28T08:53:34.676Z,0.77
2022-12-28T08:56:07.095Z,0.90
2022-12-28T08:58:36.084Z,0.70
2022-12-28T09:01:10.228Z,1.00
2022-12-28T09:03:39.463Z,0.97
2022-12-28T09:06:09.611Z,0.80
2022-12-28T09:08:38.632Z,0.73
2022-12-28T09:11:08.210Z,0.80
2022-12-28T09:13:37.134Z,0.90
2022-12-28T09:16:06.608Z,0.90
2022-12-28T09:18:36.897Z,0.80
2022-12-28T09:21:09.168Z,0.90
2022-12-28T09:23:38.112Z,0.90
2022-12-28T09:26:07.595Z,0.90
2022-12-28T09:28:36.217Z,0.90
2022-12-28T09:31:05.400Z,0.80
2022-12-28T09:34:33.826Z,1.00
2022-12-28T09:36:43.014Z,0.90
2022-12-28T09:39:13.759Z,0.80
2022-12-28T09:41:45.040Z,1.00
2022-12-28T09:44:28.613Z,0.70
2022-12-28T09:46:59.949Z,0.90
2022-12-28T09:49:34.798Z,0.97
2022-12-28T09:52:08.303Z,1.00
2022-12-28T09:54:36.896Z,1.03
2022-12-28T09:57:05.530Z,0.90
2022-12-28T09:59:36.075Z,1.20
2022-12-28T10:02:05.778Z,1.00
2022-12-28T10:04:34.531Z,1.00
2022-12-28T10:07:04.444Z,0.90
2022-12-28T10:09:35.115Z,1.07
2022-12-28T10:12:12.322Z,0.83
2022-12-28T10:14:41.311Z,0.80
2022-12-28T10:17:11.025Z,1.40
2022-12-28T10:19:39.726Z,1.33
2022-12-28T10:22:12.845Z,1.17
2022-12-28T10:24:42.357Z,1.03
2022-12-28T10:27:14.779Z,1.00
2022-12-28T10:29:43.388Z,0.90
2022-12-28T10:32:12.637Z,1.20
2022-12-28T10:34:55.879Z,1.23
2022-12-28T10:37:26.471Z,1.10
2022-12-28T10:39:56.904Z,1.03
2022-12-28T10:42:27.704Z,1.03
2022-12-28T10:45:04.592Z,1.07
2022-12-28T10:47:35.920Z,1.10
2022-12-28T10:52:59.131Z,1.00
2022-12-28T10:55:28.937Z,1.00
2022-12-28T10:58:28.647Z,1.17
2022-12-28T11:00:54.661Z,0.90
2022-12-28T11:03:26.794Z,1.13
2022-12-28T11:06:11.698Z,1.33
2022-12-28T11:08:42.270Z,1.00
2022-12-28T11:11:18.845Z,1.10
2022-12-28T11:13:49.757Z,1.03
2022-12-28T11:16:18.381Z,1.00
2022-12-28T11:18:47.010Z,1.07
2022-12-28T11:21:19.825Z,1.10
2022-12-28T11:23:50.591Z,1.20
2022-12-28T11:26:19.943Z,1.10
2022-12-28T11:28:49.949Z,1.17
2022-12-28T11:31:21.353Z,0.87
2022-12-28T11:33:50.781Z,1.13
2022-12-28T11:36:20.942Z,1.20
2022-12-28T11:38:51.838Z,1.63
2022-12-28T11:41:35.248Z,1.00
2022-12-28T11:44:05.118Z,1.00
2022-12-28T11:46:41.158Z,1.00
2022-12-28T11:49:29.473Z,1.03
2022-12-28T11:52:16.775Z,1.10
2022-12-28T11:54:54.106Z,0.87
2022-12-28T11:57:34.947Z,1.00
2022-12-28T12:00:36.661Z,1.27
2022-12-28T12:03:05.351Z,0.97
2022-12-28T12:05:49.817Z,0.80
2022-12-28T12:08:36.981Z,1.20
2022-12-28T12:11:24.241Z,1.00
2022-12-28T12:13:55.405Z,1.00
2022-12-28T12:16:26.539Z,1.20
2022-12-28T12:18:56.444Z,1.00
2022-12-28T12:21:33.121Z,1.40
2022-12-28T12:24:05.972Z,0.90
2022-12-28T12:26:37.939Z,1.13
2022-12-28T12:29:09.504Z,1.17
2022-12-28T12:31:41.389Z,1.17
2022-12-28T12:34:19.241Z,1.20
2022-12-28T12:37:00.448Z,1.10
2022-12-28T12:39:35.338Z,1.10
2022-12-28T12:42:10.889Z,1.20
2022-12-28T12:44:45.536Z,1.27
2022-12-28T12:47:25.839Z,1.07
2022-12-28T12:50:02.260Z,1.40
2022-12-28T12:52:40.535Z,1.20
2022-12-28T12:55:17.877Z,1.00
2022-12-28T12:57:52.494Z,1.20
2022-12-28T13:00:24.191Z,1.20
2022-12-28T13:03:13.485Z,1.40
2022-12-28T13:05:44.052Z,1.37
2022-12-28T13:08:17.553Z,1.50
2022-12-28T13:10:46.145Z,1.17
2022-12-28T13:13:19.900Z,1.20
2022-12-28T13:15:50.068Z,1.40
2022-12-28T13:21:12.791Z,1.30
2022-12-28T13:23:44.675Z,1.40
2022-12-28T13:26:13.925Z,1.20
2022-12-28T13:28:48.077Z,1.10
2022-12-28T13:31:19.835Z,1.10
2022-12-28T13:33:58.333Z,1.10
2022-12-28T13:36:27.080Z,1.30
2022-12-28T13:39:07.078Z,1.40
2022-12-28T13:41:37.097Z,1.53
2022-12-28T13:44:21.451Z,0.83
2022-12-28T13:46:54.072Z,1.20
2022-12-28T13:49:23.590Z,1.50
2022-12-28T13:51:53.731Z,1.43
2022-12-28T13:54:24.977Z,1.10
2022-12-28T13:57:14.316Z,1.30
2022-12-28T13:59:44.209Z,1.20
2022-12-28T14:02:17.209Z,1.20
2022-12-28T14:04:53.970Z,1.43
2022-12-28T14:07:24.082Z,1.20
2022-12-28T14:09:53.130Z,1.10
2022-12-28T14:12:22.103Z,1.10
2022-12-28T14:14:51.010Z,1.20
2022-12-28T14:17:21.711Z,1.30
2022-12-28T14:19:50.511Z,1.20
2022-12-28T14:22:29.472Z,1.40
2022-12-28T14:25:08.674Z,1.20
2022-12-28T14:27:38.549Z,1.43
2022-12-28T14:30:08.609Z,1.10
2022-12-28T14:32:42.806Z,1.20
2022-12-28T14:35:17.842Z,1.20
2022-12-28T14:37:47.311Z,1.07
2022-12-28T14:40:19.847Z,1.30
2022-12-28T14:42:50.809Z,0.90
2022-12-28T14:45:36.292Z,1.10
2022-12-28T14:48:27.184Z,1.17
2022-12-28T14:51:00.290Z,1.50
2022-12-28T14:53:29.043Z,1.40
2022-12-28T14:56:07.990Z,1.03
2022-12-28T14:58:41.143Z,1.10
2022-12-28T15:01:10.577Z,1.40
2022-12-28T15:03:53.916Z,1.10
2022-12-28T15:06:22.650Z,1.07
2022-12-28T15:08:51.829Z,1.03
2022-12-28T15:11:20.723Z,0.90
2022-12-28T15:13:49.673Z,1.17
2022-12-28T15:16:18.909Z,1.03
2022-12-28T15:18:47.832Z,1.10
2022-12-28T15:21:18.605Z,1.00
2022-12-28T15:23:50.236Z,1.10
2022-12-28T15:26:19.085Z,1.03
2022-12-28T15:28:47.744Z,0.90
2022-12-28T15:31:17.869Z,1.00
2022-12-28T15:33:47.048Z,1.00
2022-12-28T15:36:17.937Z,1.10
2022-12-28T15:38:48.733Z,1.10
2022-12-28T15:41:35.562Z,1.10
2022-12-28T15:44:04.141Z,1.23
2022-12-28T15:46:33.038Z,1.00
2022-12-28T15:49:03.433Z,1.03
2022-12-28T15:51:32.118Z,1.00
2022-12-28T15:54:02.239Z,1.10
2022-12-28T15:56:31.726Z,1.20
2022-12-28T15:59:01.378Z,1.20
2022-12-28T16:01:30.771Z,1.00
2022-12-28T16:04:00.254Z,1.00
2022-12-28T16:06:29.514Z,1.00
2022-12-28T16:08:58.947Z,1.10
2022-12-28T16:11:30.288Z,1.10
2022-12-28T16:14:00.041Z,1.50
2022-12-28T16:16:29.690Z,1.20
2022-12-28T16:18:59.033Z,0.87
2022-12-28T16:21:28.113Z,0.90
2022-12-28T16:23:56.674Z,1.40
2022-12-28T16:26:25.213Z,1.10
2022-12-28T16:28:55.131Z,1.00
2022-12-28T16:31:24.482Z,1.10
2022-12-28T16:33:56.114Z,1.20
2022-12-28T16:36:25.184Z,1.10
2022-12-28T16:38:54.026Z,1.20
2022-12-28T16:41:22.731Z,1.53
2022-12-28T16:43:51.421Z,1.50
2022-12-28T16:46:21.399Z,1.43
2022-12-28T16:48:49.995Z,1.40
2022-12-28T16:51:18.541Z,1.20
2022-12-28T16:53:47.160Z,1.30
2022-12-28T16:56:15.689Z,1.33
2022-12-28T16:58:48.948Z,1.20
2022-12-28T17:01:18.048Z,1.23
2022-12-28T17:03:48.007Z,1.20
2022-12-28T17:06:17.126Z,1.20
2022-12-28T17:08:46.000Z,1.30
2022-12-28T17:11:15.033Z,1.03
2022-12-28T17:13:43.571Z,1.30
2022-12-28T17:16:12.292Z,1.50
2022-12-28T17:18:40.874Z,1.13
2022-12-28T17:21:10.838Z,1.20
2022-12-28T17:23:40.369Z,1.17
2022-12-28T17:26:09.421Z,1.20
2022-12-28T17:28:38.009Z,1.30
2022-12-28T17:31:07.776Z,1.00
2022-12-28T17:33:39.685Z,1.40
2022-12-28T17:36:09.702Z,0.90
2022-12-28T17:38:39.895Z,1.20
2022-12-28T17:41:10.205Z,1.00
2022-12-28T17:43:38.811Z,1.00
2022-12-28T17:46:07.786Z,1.10
2022-12-28T17:48:36.438Z,0.90
2022-12-28T17:51:10.868Z,1.27
2022-12-28T17:53:41.786Z,1.30
2022-12-28T17:56:12.085Z,1.00
2022-12-28T17:58:40.910Z,1.20
2022-12-28T18:01:09.873Z,0.90
2022-12-28T18:03:39.201Z,1.10
2022-12-28T18:06:08.234Z,1.00
2022-12-28T18:08:36.834Z,0.80
2022-12-28T18:11:08.532Z,1.10
2022-12-28T18:13:37.099Z,0.93
2022-12-28T18:16:06.565Z,1.10
2022-12-28T18:18:35.239Z,1.13
2022-12-28T18:21:04.858Z,0.90
2022-12-28T18:23:34.273Z,0.90
2022-12-28T18:26:03.358Z,0.90
2022-12-28T18:28:33.633Z,1.00
2022-12-28T18:31:02.941Z,0.80
2022-12-28T18:33:32.012Z,0.90
2022-12-28T18:36:00.919Z,1.00
2022-12-28T18:38:29.510Z,0.83
2022-12-28T18:40:59.619Z,0.80
2022-12-28T18:43:28.640Z,0.80
2022-12-28T18:45:59.035Z,1.00
2022-12-28T18:48:28.480Z,1.10
2022-12-28T18:50:57.848Z,1.00
2022-12-28T18:53:27.046Z,0.80
2022-12-28T18:55:59.079Z,1.07
2022-12-28T18:58:28.010Z,1.13
2022-12-28T19:01:02.585Z,0.80
2022-12-28T19:03:32.892Z,0.90
2022-12-28T19:06:03.232Z,1.00
2022-12-28T19:08:32.562Z,1.17
2022-12-28T19:11:01.241Z,0.90
2022-12-28T19:13:30.218Z,1.20
2022-12-28T19:15:58.799Z,0.90
2022-12-28T19:18:27.452Z,1.10
2022-12-28T19:21:00.372Z,1.00
2022-12-28T19:23:28.937Z,0.90
2022-12-28T19:25:59.414Z,1.03
2022-12-28T19:28:28.173Z,0.93
2022-12-28T19:31:02.666Z,1.20
2022-12-28T19:33:33.439Z,1.00
2022-12-28T19:36:03.382Z,1.10
2022-12-28T19:38:31.930Z,0.97
2022-12-28T19:41:05.500Z,0.90
2022-12-28T19:43:34.097Z,1.00
2022-12-28T19:46:03.585Z,0.90
2022-12-28T19:48:32.211Z,1.10
2022-12-28T19:51:01.226Z,1.00
2022-12-28T19:53:31.084Z,1.10
2022-12-28T19:56:00.358Z,1.13
2022-12-28T19:58:28.996Z,0.80
2022-12-28T20:01:04.556Z,1.10
2022-12-28T20:03:33.217Z,0.97
2022-12-28T20:06:06.796Z,1.23
2022-12-28T20:08:36.749Z,1.10
2022-12-28T20:11:05.551Z,0.90
2022-12-28T20:13:34.813Z,1.00
2022-12-28T20:16:03.487Z,1.03
2022-12-28T20:18:32.218Z,0.97
2022-12-28T20:21:19.103Z,0.80
2022-12-28T20:23:49.794Z,1.07
2022-12-28T20:26:18.421Z,0.90
2022-12-28T20:28:47.296Z,0.80
2022-12-28T20:31:16.241Z,0.90
2022-12-28T20:33:45.325Z,0.83
2022-12-28T20:36:15.339Z,0.90
2022-12-28T20:38:44.229Z,0.83
2022-12-28T20:41:35.323Z,0.67
2022-12-28T20:44:04.673Z,0.77
2022-12-28T20:46:34.214Z,0.80
2022-12-28T20:49:02.878Z,0.80
2022-12-28T20:51:31.483Z,0.80
2022-12-28T20:54:00.067Z,0.83
2022-12-28T20:56:30.078Z,0.80
2022-12-28T20:58:58.687Z,0.87
2022-12-28T21:01:27.370Z,0.87
2022-12-28T21:03:56.127Z,0.67
2022-12-28T21:06:24.887Z,0.70
2022-12-28T21:08:53.396Z,0.70
2022-12-28T21:11:21.983Z,0.70
2022-12-28T21:13:51.872Z,0.60
2022-12-28T21:16:20.443Z,0.70
2022-12-28T21:18:50.938Z,0.63
2022-12-28T21:21:21.603Z,0.60
2022-12-28T21:23:52.384Z,0.70
2022-12-28T21:26:21.884Z,0.63
2022-12-28T21:28:51.949Z,0.77
2022-12-28T21:31:20.548Z,0.60
2022-12-28T21:33:49.171Z,0.60
2022-12-28T21:36:18.932Z,0.60
2022-12-28T21:38:48.351Z,0.70
2022-12-28T21:41:37.964Z,0.60
2022-12-28T21:44:08.730Z,0.60
2022-12-28T21:46:37.326Z,0.50
2022-12-28T21:49:06.169Z,0.60
2022-12-28T21:51:35.909Z,0.73
2022-12-28T21:54:05.485Z,0.53
2022-12-28T21:56:34.702Z,0.80
2022-12-28T21:59:03.371Z,0.60
2022-12-28T22:01:51.340Z,0.60
2022-12-28T22:04:37.602Z,0.70
2022-12-28T22:07:06.928Z,0.50
2022-12-28T22:09:53.912Z,0.60
2022-12-28T22:12:37.951Z,0.63
2022-12-28T22:15:26.986Z,0.60
2022-12-28T22:17:58.072Z,0.60
2022-12-28T22:20:27.545Z,0.43
2022-12-28T22:22:57.162Z,0.50
2022-12-28T22:25:25.893Z,0.97
2022-12-28T22:27:54.444Z,0.57
2022-12-28T22:30:23.150Z,0.70
2022-12-28T22:32:51.847Z,0.50
2022-12-28T22:35:21.804Z,0.60
2022-12-28T22:37:50.654Z,0.60
2022-12-28T22:40:19.341Z,0.70
2022-12-28T22:42:48.620Z,1.00
2022-12-28T22:45:18.203Z,0.50
2022-12-28T22:47:47.151Z,0.60
2022-12-28T22:50:16.493Z,0.60
2022-12-28T22:52:46.489Z,0.60
2022-12-28T22:55:15.382Z,0.60
2022-12-28T22:57:43.991Z,0.50
2022-12-28T23:00:13.863Z,0.50
2022-12-28T23:02:43.160Z,0.63
2022-12-28T23:05:12.021Z,0.60
2022-12-28T23:07:40.575Z,0.50
2022-12-28T23:10:11.212Z,0.50
2022-12-28T23:12:39.756Z,0.50
2022-12-28T23:15:18.920Z,0.50
2022-12-28T23:17:48.419Z,0.47
2022-12-28T23:20:34.975Z,0.43
2022-12-28T23:23:21.432Z,0.50
2022-12-28T23:26:09.270Z,0.50
2022-12-28T23:28:37.884Z,0.53
2022-12-28T23:31:06.720Z,0.63
2022-12-28T23:33:36.584Z,0.53
2022-12-28T23:36:05.459Z,0.40
2022-12-28T23:38:34.460Z,0.43
2022-12-28T23:41:25.882Z,0.40
2022-12-28T23:43:54.506Z,0.50
2022-12-28T23:46:23.073Z,0.47
2022-12-28T23:48:51.640Z,0.50
2022-12-28T23:51:20.532Z,0.47
2022-12-28T23:53:49.109Z,0.43
2022-12-28T23:56:19.077Z,0.50
2022-12-28T23:58:50.633Z,0.30
